Time;durP1;ratioP1;P1;durP2;ratioP2;P2;SDS_P1;SDS_P2;PMS_P1;PMS_P2;Temp;Humidity;BMP_temperature;BMP_pressure;BME280_temperature;BME280_humidity;BME280_pressure;Samples;Min_cycle;Max_cycle;Signal;HPM_P1;HPM_P2
2022/12/13 00:01:31;;;;;;;0.40;0.40;;;;;;;;;;5084548;28;20234;-72
2022/12/13 00:03:59;;;;;;;0.40;0.40;;;;;;;;;;5084813;28;20264;-72
2022/12/13 00:06:27;;;;;;;0.40;0.40;;;;;;;;;;5084415;28;20241;-72
2022/12/13 00:08:54;;;;;;;0.40;0.40;;;;;;;;;;5084387;28;20249;-71
2022/12/13 00:11:20;;;;;;;0.40;0.40;;;;;;;;;;5084653;28;20421;-72
2022/12/13 00:13:47;;;;;;;0.40;0.40;;;;;;;;;;5084391;28;20294;-72
2022/12/13 00:16:14;;;;;;;0.40;0.40;;;;;;;;;;5084491;28;20214;-71
2022/12/13 00:18:40;;;;;;;0.40;0.40;;;;;;;;;;5084567;28;20490;-72
2022/12/13 00:21:08;;;;;;;0.67;0.67;;;;;;;;;;5084408;28;20223;-72
2022/12/13 00:23:36;;;;;;;0.40;0.40;;;;;;;;;;5084474;28;20199;-72
2022/12/13 00:26:03;;;;;;;0.40;0.40;;;;;;;;;;5084350;28;20203;-72
2022/12/13 00:28:30;;;;;;;0.40;0.40;;;;;;;;;;5084182;28;20242;-72
2022/12/13 00:30:56;;;;;;;0.40;0.40;;;;;;;;;;5084284;28;20266;-72
2022/12/13 00:33:23;;;;;;;0.40;0.40;;;;;;;;;;5084228;28;22185;-71
2022/12/13 00:35:49;;;;;;;0.40;0.40;;;;;;;;;;5084193;28;20264;-71
2022/12/13 00:38:16;;;;;;;0.40;0.40;;;;;;;;;;5084222;28;20211;-72
2022/12/13 00:40:43;;;;;;;0.40;0.40;;;;;;;;;;5083372;28;20206;-72
2022/12/13 00:43:10;;;;;;;0.40;0.40;;;;;;;;;;5084138;28;20529;-72
2022/12/13 00:45:37;;;;;;;0.47;0.47;;;;;;;;;;5084129;28;20203;-72
2022/12/13 00:48:04;;;;;;;0.80;0.80;;;;;;;;;;5083826;28;20205;-72
2022/12/13 00:50:30;;;;;;;0.40;0.40;;;;;;;;;;5083791;28;20211;-72
2022/12/13 00:52:58;;;;;;;0.40;0.40;;;;;;;;;;5083769;28;20274;-72
2022/12/13 00:55:24;;;;;;;0.40;0.40;;;;;;;;;;5083948;28;20230;-71
2022/12/13 00:57:52;;;;;;;0.40;0.40;;;;;;;;;;5083608;28;20237;-71
2022/12/13 01:00:19;;;;;;;0.40;0.40;;;;;;;;;;5083674;28;20237;-72
2022/12/13 01:02:45;;;;;;;0.60;0.60;;;;;;;;;;5083584;28;20285;-72
2022/12/13 01:05:12;;;;;;;1.27;1.27;;;;;;;;;;5083974;28;20240;-72
2022/12/13 01:07:39;;;;;;;0.83;0.83;;;;;;;;;;5083496;28;20213;-71
2022/12/13 01:10:06;;;;;;;0.40;0.40;;;;;;;;;;5083743;28;20454;-71
2022/12/13 01:12:33;;;;;;;0.40;0.40;;;;;;;;;;5083820;28;20203;-71
2022/12/13 01:15:00;;;;;;;4.43;2.70;;;;;;;;;;5083660;28;20498;-71
2022/12/13 01:17:27;;;;;;;0.50;0.50;;;;;;;;;;5083792;28;20528;-71
2022/12/13 01:19:53;;;;;;;0.40;0.40;;;;;;;;;;5083897;28;20223;-72
2022/12/13 01:22:20;;;;;;;0.40;0.40;;;;;;;;;;5083669;28;20290;-71
2022/12/13 01:24:46;;;;;;;0.40;0.40;;;;;;;;;;5083351;28;20210;-72
2022/12/13 01:27:12;;;;;;;0.50;0.50;;;;;;;;;;5083705;28;20210;-71
2022/12/13 01:29:39;;;;;;;0.40;0.40;;;;;;;;;;5083870;28;20394;-72
2022/12/13 01:32:07;;;;;;;2.23;2.20;;;;;;;;;;5083742;28;20452;-71
2022/12/13 01:34:33;;;;;;;0.50;0.50;;;;;;;;;;5083691;28;20293;-71
2022/12/13 01:36:59;;;;;;;0.73;0.73;;;;;;;;;;5083283;28;20288;-71
2022/12/13 01:39:26;;;;;;;0.43;0.43;;;;;;;;;;5083756;28;20213;-72
2022/12/13 01:41:58;;;;;;;0.40;0.40;;;;;;;;;;5083249;28;20238;-71
2022/12/13 01:44:43;;;;;;;0.40;0.40;;;;;;;;;;5083697;28;20203;-71
2022/12/13 01:47:10;;;;;;;0.40;0.40;;;;;;;;;;5083224;28;20206;-71
2022/12/13 01:49:37;;;;;;;0.73;0.73;;;;;;;;;;5083169;28;20301;-72
2022/12/13 01:52:06;;;;;;;0.57;0.57;;;;;;;;;;5083133;28;20273;-71
2022/12/13 01:54:36;;;;;;;0.40;0.40;;;;;;;;;;5086080;28;20239;-72
2022/12/13 01:57:04;;;;;;;0.40;0.40;;;;;;;;;;5087274;28;20391;-72
2022/12/13 01:59:31;;;;;;;0.40;0.40;;;;;;;;;;5087330;28;20244;-72
2022/12/13 02:01:57;;;;;;;0.43;0.43;;;;;;;;;;5086744;28;20206;-71
2022/12/13 02:04:28;;;;;;;0.40;0.40;;;;;;;;;;5087118;28;20274;-71
2022/12/13 02:06:56;;;;;;;0.40;0.40;;;;;;;;;;5086722;28;20236;-71
2022/12/13 02:09:22;;;;;;;0.40;0.40;;;;;;;;;;5087117;28;20217;-71
2022/12/13 02:11:49;;;;;;;0.40;0.40;;;;;;;;;;5086939;28;20210;-71
2022/12/13 02:14:15;;;;;;;0.47;0.47;;;;;;;;;;5086900;28;20232;-72
2022/12/13 02:16:49;;;;;;;0.40;0.40;;;;;;;;;;5086524;28;20307;-71
2022/12/13 02:19:31;;;;;;;0.47;0.47;;;;;;;;;;5086951;28;20206;-71
2022/12/13 02:22:04;;;;;;;0.50;0.50;;;;;;;;;;5084085;28;20232;-72
2022/12/13 02:24:48;;;;;;;0.60;0.60;;;;;;;;;;5086885;28;20389;-71
2022/12/13 02:27:22;;;;;;;0.43;0.43;;;;;;;;;;5086268;28;20244;-71
2022/12/13 02:30:20;;;;;;;0.50;0.50;;;;;;;;;;5086847;28;20277;-72
2022/12/13 02:32:55;;;;;;;0.50;0.50;;;;;;;;;;5086544;28;20363;-72
2022/12/13 02:35:23;;;;;;;2.43;2.43;;;;;;;;;;5086454;28;20218;-71
2022/12/13 02:37:54;;;;;;;0.50;0.50;;;;;;;;;;5086044;28;20208;-71
2022/12/13 02:40:22;;;;;;;2.47;1.70;;;;;;;;;;5086164;28;20229;-71
2022/12/13 02:42:51;;;;;;;0.50;0.50;;;;;;;;;;5086296;28;20206;-71
2022/12/13 02:45:20;;;;;;;0.40;0.40;;;;;;;;;;5085981;28;20208;-72
2022/12/13 02:47:47;;;;;;;0.50;0.50;;;;;;;;;;5085823;28;20541;-71
2022/12/13 02:50:15;;;;;;;0.40;0.40;;;;;;;;;;5085902;28;20518;-71
2022/12/13 02:52:45;;;;;;;0.50;0.50;;;;;;;;;;5085628;28;20251;-71
2022/12/13 02:55:15;;;;;;;0.40;0.40;;;;;;;;;;5086073;28;20259;-71
2022/12/13 02:57:43;;;;;;;0.43;0.43;;;;;;;;;;5085838;28;20202;-72
2022/12/13 03:00:12;;;;;;;0.70;0.70;;;;;;;;;;5085750;28;20252;-73
2022/12/13 03:02:45;;;;;;;0.43;0.43;;;;;;;;;;5085936;28;20448;-71
2022/12/13 03:08:08;;;;;;;1.40;1.17;;;;;;;;;;5085667;28;20212;-71
2022/12/13 03:10:38;;;;;;;0.60;0.60;;;;;;;;;;5085871;28;20224;-71
2022/12/13 03:15:54;;;;;;;0.50;0.50;;;;;;;;;;5085450;28;20295;-71
2022/12/13 03:18:21;;;;;;;0.50;0.50;;;;;;;;;;5085626;28;20249;-71
2022/12/13 03:20:48;;;;;;;1.70;1.70;;;;;;;;;;5085463;28;20519;-71
2022/12/13 03:23:17;;;;;;;0.60;0.60;;;;;;;;;;5085396;28;20275;-71
2022/12/13 03:25:44;;;;;;;0.50;0.50;;;;;;;;;;5085232;28;20233;-72
2022/12/13 03:28:11;;;;;;;0.50;0.50;;;;;;;;;;5085439;28;20438;-72
2022/12/13 03:30:39;;;;;;;0.60;0.60;;;;;;;;;;5085470;28;20204;-71
2022/12/13 03:33:06;;;;;;;1.00;1.00;;;;;;;;;;5085333;28;20623;-71
2022/12/13 03:35:32;;;;;;;0.50;0.50;;;;;;;;;;5085273;28;20257;-72
2022/12/13 03:38:00;;;;;;;0.50;0.50;;;;;;;;;;5085298;28;20501;-71
2022/12/13 03:40:29;;;;;;;0.70;0.70;;;;;;;;;;5085231;28;20236;-72
2022/12/13 03:42:55;;;;;;;1.30;1.23;;;;;;;;;;5084989;28;20244;-72
2022/12/13 03:45:22;;;;;;;0.90;0.90;;;;;;;;;;5084819;28;20233;-72
2022/12/13 03:47:48;;;;;;;0.50;0.50;;;;;;;;;;5084728;28;20272;-71
2022/12/13 03:50:15;;;;;;;0.50;0.50;;;;;;;;;;5085005;28;20394;-72
2022/12/13 03:52:41;;;;;;;0.50;0.50;;;;;;;;;;5084456;28;20206;-72
2022/12/13 03:55:08;;;;;;;0.50;0.50;;;;;;;;;;5084867;28;20225;-72
2022/12/13 03:57:36;;;;;;;0.50;0.50;;;;;;;;;;5084813;28;20205;-72
2022/12/13 04:00:02;;;;;;;1.57;1.47;;;;;;;;;;5084517;28;20228;-71
2022/12/13 04:02:29;;;;;;;2.80;2.70;;;;;;;;;;5084828;28;20454;-72
2022/12/13 04:04:55;;;;;;;0.40;0.40;;;;;;;;;;5084926;28;20452;-72
2022/12/13 04:07:21;;;;;;;0.50;0.50;;;;;;;;;;5084672;28;20204;-71
2022/12/13 04:09:48;;;;;;;0.50;0.50;;;;;;;;;;5084811;28;20245;-72
2022/12/13 04:14:59;;;;;;;0.50;0.50;;;;;;;;;;5084685;28;20256;-72
2022/12/13 04:17:25;;;;;;;0.50;0.50;;;;;;;;;;5083638;28;20273;-71
2022/12/13 04:19:52;;;;;;;0.50;0.50;;;;;;;;;;5084644;28;20561;-71
2022/12/13 04:22:18;;;;;;;0.60;0.60;;;;;;;;;;5084359;28;20226;-71
2022/12/13 04:24:44;;;;;;;0.50;0.50;;;;;;;;;;5084552;28;20202;-72
2022/12/13 04:27:11;;;;;;;0.50;0.50;;;;;;;;;;5084053;28;20273;-72
2022/12/13 04:29:37;;;;;;;1.10;1.10;;;;;;;;;;5083888;28;20200;-72
2022/12/13 04:32:05;;;;;;;0.60;0.60;;;;;;;;;;5084296;28;20527;-73
2022/12/13 04:34:34;;;;;;;0.90;0.90;;;;;;;;;;5084329;28;20276;-72
2022/12/13 04:37:00;;;;;;;0.60;0.60;;;;;;;;;;5084136;28;20238;-71
2022/12/13 04:39:26;;;;;;;26.57;13.90;;;;;;;;;;5084255;28;20205;-72
2022/12/13 04:41:53;;;;;;;0.50;0.50;;;;;;;;;;5083813;28;20217;-72
2022/12/13 04:44:22;;;;;;;0.50;0.50;;;;;;;;;;5084204;28;20210;-71
2022/12/13 04:46:51;;;;;;;0.40;0.40;;;;;;;;;;5083743;28;20213;-71
2022/12/13 04:49:18;;;;;;;0.50;0.50;;;;;;;;;;5084168;28;20501;-71
2022/12/13 04:51:45;;;;;;;0.40;0.40;;;;;;;;;;5083663;28;20204;-72
2022/12/13 04:54:11;;;;;;;0.50;0.50;;;;;;;;;;5083562;28;20217;-72
2022/12/13 04:56:38;;;;;;;2.43;2.40;;;;;;;;;;5083870;28;20256;-71
2022/12/13 04:59:05;;;;;;;0.43;0.43;;;;;;;;;;5083851;28;20202;-72
2022/12/13 05:01:31;;;;;;;0.50;0.50;;;;;;;;;;5083596;28;20206;-72
2022/12/13 05:03:57;;;;;;;0.50;0.50;;;;;;;;;;5083809;28;20206;-72
2022/12/13 05:06:25;;;;;;;0.50;0.50;;;;;;;;;;5083821;28;20201;-71
2022/12/13 05:08:51;;;;;;;1.10;1.10;;;;;;;;;;5083926;28;20240;-71
2022/12/13 05:11:18;;;;;;;0.50;0.50;;;;;;;;;;5083812;28;20237;-72
2022/12/13 05:13:44;;;;;;;0.97;0.97;;;;;;;;;;5083584;28;20258;-72
2022/12/13 05:16:11;;;;;;;0.50;0.50;;;;;;;;;;5083774;28;20226;-71
2022/12/13 05:18:37;;;;;;;0.50;0.50;;;;;;;;;;5083591;28;20217;-71
2022/12/13 05:21:04;;;;;;;0.50;0.50;;;;;;;;;;5083686;28;20300;-72
2022/12/13 05:23:32;;;;;;;0.50;0.50;;;;;;;;;;5083777;28;20207;-72
2022/12/13 05:25:58;;;;;;;0.50;0.50;;;;;;;;;;5083680;28;20209;-71
2022/12/13 05:28:27;;;;;;;0.50;0.50;;;;;;;;;;5086589;28;20438;-73
2022/12/13 05:30:54;;;;;;;0.50;0.50;;;;;;;;;;5087763;28;20209;-72
2022/12/13 05:33:20;;;;;;;0.50;0.50;;;;;;;;;;5087725;28;20262;-71
2022/12/13 05:35:46;;;;;;;0.50;0.50;;;;;;;;;;5087566;28;20248;-71
2022/12/13 05:38:13;;;;;;;0.50;0.50;;;;;;;;;;5087363;28;20270;-71
2022/12/13 05:40:41;;;;;;;0.50;0.50;;;;;;;;;;5087530;28;20208;-73
2022/12/13 05:43:07;;;;;;;0.50;0.50;;;;;;;;;;5087045;28;20229;-72
2022/12/13 05:45:33;;;;;;;0.50;0.50;;;;;;;;;;5087449;28;20448;-71
2022/12/13 05:48:00;;;;;;;0.50;0.50;;;;;;;;;;5087383;28;20256;-71
2022/12/13 05:50:26;;;;;;;0.60;0.60;;;;;;;;;;5087074;28;20205;-72
2022/12/13 05:52:53;;;;;;;0.50;0.50;;;;;;;;;;5087074;28;20414;-71
2022/12/13 05:55:19;;;;;;;0.50;0.50;;;;;;;;;;5087230;28;20246;-72
2022/12/13 05:57:47;;;;;;;0.50;0.50;;;;;;;;;;5087057;28;20273;-71
2022/12/13 06:00:14;;;;;;;0.50;0.50;;;;;;;;;;5087114;28;20252;-72
2022/12/13 06:02:41;;;;;;;0.60;0.60;;;;;;;;;;5087042;28;20229;-72
2022/12/13 06:05:08;;;;;;;0.60;0.60;;;;;;;;;;5087019;28;20442;-72
2022/12/13 06:07:35;;;;;;;1.93;1.83;;;;;;;;;;5086705;28;20271;-72
2022/12/13 06:10:01;;;;;;;1.17;1.17;;;;;;;;;;5086958;28;20205;-73
2022/12/13 06:12:28;;;;;;;0.60;0.60;;;;;;;;;;5086926;28;20232;-72
2022/12/13 06:14:55;;;;;;;0.50;0.50;;;;;;;;;;5086964;28;20241;-72
2022/12/13 06:17:23;;;;;;;0.50;0.50;;;;;;;;;;5086563;28;20240;-72
2022/12/13 06:19:50;;;;;;;0.50;0.50;;;;;;;;;;5086886;28;20247;-73
2022/12/13 06:22:16;;;;;;;1.13;1.07;;;;;;;;;;5086331;28;20222;-72
2022/12/13 06:24:42;;;;;;;0.50;0.50;;;;;;;;;;5086899;28;20244;-72
2022/12/13 06:27:09;;;;;;;5.30;4.87;;;;;;;;;;5086369;28;20201;-72
2022/12/13 06:29:35;;;;;;;0.50;0.50;;;;;;;;;;5086761;28;20430;-72
2022/12/13 06:32:03;;;;;;;0.50;0.50;;;;;;;;;;5086597;28;20260;-72
2022/12/13 06:34:30;;;;;;;0.50;0.50;;;;;;;;;;5086684;28;20241;-72
2022/12/13 06:36:57;;;;;;;0.53;0.53;;;;;;;;;;5086352;28;20237;-72
2022/12/13 06:39:23;;;;;;;4.17;3.43;;;;;;;;;;5085715;28;20206;-72
2022/12/13 06:41:50;;;;;;;0.50;0.50;;;;;;;;;;5086396;28;20249;-72
2022/12/13 06:44:16;;;;;;;0.50;0.50;;;;;;;;;;5086447;28;20203;-72
2022/12/13 06:46:42;;;;;;;0.50;0.50;;;;;;;;;;5085971;28;20241;-73
2022/12/13 06:49:10;;;;;;;0.50;0.50;;;;;;;;;;5086250;28;20248;-72
2022/12/13 06:51:37;;;;;;;0.50;0.50;;;;;;;;;;5086224;28;20205;-72
2022/12/13 06:54:03;;;;;;;0.50;0.50;;;;;;;;;;5085843;28;20217;-72
2022/12/13 06:56:30;;;;;;;0.50;0.50;;;;;;;;;;5085885;28;20290;-72
2022/12/13 06:58:56;;;;;;;0.50;0.50;;;;;;;;;;5085904;28;20277;-72
2022/12/13 07:01:23;;;;;;;0.70;0.70;;;;;;;;;;5085704;28;20206;-73
2022/12/13 07:03:49;;;;;;;2.03;2.00;;;;;;;;;;5085982;28;20206;-72
2022/12/13 07:06:17;;;;;;;1.57;1.57;;;;;;;;;;5085601;28;20209;-72
2022/12/13 07:08:47;;;;;;;8.77;8.40;;;;;;;;;;5085697;28;20241;-72
2022/12/13 07:11:14;;;;;;;2.63;2.53;;;;;;;;;;5086195;28;20205;-72
2022/12/13 07:13:40;;;;;;;0.50;0.50;;;;;;;;;;5085636;28;20210;-72
2022/12/13 07:16:07;;;;;;;0.50;0.50;;;;;;;;;;5085364;28;20253;-72
2022/12/13 07:18:33;;;;;;;0.50;0.50;;;;;;;;;;5085510;28;20205;-72
2022/12/13 07:21:00;;;;;;;0.50;0.50;;;;;;;;;;5085487;28;20230;-72
2022/12/13 07:23:27;;;;;;;0.50;0.50;;;;;;;;;;5085621;28;20453;-72
2022/12/13 07:25:54;;;;;;;0.70;0.70;;;;;;;;;;5085500;28;20441;-72
2022/12/13 07:28:21;;;;;;;0.50;0.50;;;;;;;;;;5085320;28;20209;-71
2022/12/13 07:30:48;;;;;;;0.67;0.67;;;;;;;;;;5085097;28;20301;-72
2022/12/13 07:33:14;;;;;;;0.50;0.50;;;;;;;;;;5085150;28;20200;-73
2022/12/13 07:35:42;;;;;;;0.60;0.60;;;;;;;;;;5085190;28;20543;-73
2022/12/13 07:38:08;;;;;;;0.90;0.90;;;;;;;;;;5085081;28;20206;-72
2022/12/13 07:40:37;;;;;;;0.50;0.50;;;;;;;;;;5085211;28;20509;-72
2022/12/13 07:43:04;;;;;;;0.50;0.50;;;;;;;;;;5084865;28;20238;-72
2022/12/13 07:45:30;;;;;;;0.50;0.50;;;;;;;;;;5085125;28;20244;-72
2022/12/13 07:47:56;;;;;;;0.50;0.50;;;;;;;;;;5084989;28;20487;-73
2022/12/13 07:50:23;;;;;;;0.50;0.50;;;;;;;;;;5084670;28;20203;-72
2022/12/13 07:52:50;;;;;;;0.60;0.60;;;;;;;;;;5084511;28;20218;-72
2022/12/13 07:55:17;;;;;;;0.57;0.57;;;;;;;;;;5084908;28;20427;-72
2022/12/13 07:57:44;;;;;;;0.60;0.60;;;;;;;;;;5084560;28;20203;-72
2022/12/13 08:00:11;;;;;;;0.60;0.60;;;;;;;;;;5084580;28;20280;-73
2022/12/13 08:02:39;;;;;;;0.50;0.50;;;;;;;;;;5084661;28;20204;-72
2022/12/13 08:05:06;;;;;;;0.50;0.50;;;;;;;;;;5084433;28;20272;-73
2022/12/13 08:07:32;;;;;;;0.50;0.50;;;;;;;;;;5084340;28;20232;-72
2022/12/13 08:09:59;;;;;;;1.17;1.17;;;;;;;;;;5084836;28;20346;-72
2022/12/13 08:12:25;;;;;;;0.50;0.50;;;;;;;;;;5084621;28;20240;-72
2022/12/13 08:14:54;;;;;;;4.97;4.57;;;;;;;;;;5084784;28;20276;-72
2022/12/13 08:17:20;;;;;;;1.90;1.90;;;;;;;;;;5084186;28;20265;-72
2022/12/13 08:19:47;;;;;;;1.97;1.87;;;;;;;;;;5084670;28;20422;-72
2022/12/13 08:22:13;;;;;;;0.50;0.50;;;;;;;;;;5084351;28;20457;-73
2022/12/13 08:24:40;;;;;;;0.50;0.50;;;;;;;;;;5084489;28;20205;-73
2022/12/13 08:27:06;;;;;;;1.60;1.50;;;;;;;;;;5084052;28;20233;-72
2022/12/13 08:29:34;;;;;;;0.50;0.50;;;;;;;;;;5084451;28;20237;-73
2022/12/13 08:32:02;;;;;;;0.50;0.50;;;;;;;;;;5083939;28;20244;-72
2022/12/13 08:34:28;;;;;;;0.50;0.50;;;;;;;;;;5084306;28;20219;-73
2022/12/13 08:36:54;;;;;;;0.50;0.50;;;;;;;;;;5084171;28;20254;-72
2022/12/13 08:39:21;;;;;;;1.13;1.13;;;;;;;;;;5084335;28;20424;-72
2022/12/13 08:41:47;;;;;;;0.50;0.50;;;;;;;;;;5084108;28;20455;-72
2022/12/13 08:44:14;;;;;;;0.60;0.60;;;;;;;;;;5084085;28;20238;-72
2022/12/13 08:46:40;;;;;;;3.17;2.93;;;;;;;;;;5084086;28;20525;-72
2022/12/13 08:49:08;;;;;;;0.40;0.40;;;;;;;;;;5084167;28;20234;-72
2022/12/13 08:51:34;;;;;;;0.50;0.50;;;;;;;;;;5083747;28;20203;-73
2022/12/13 08:54:00;;;;;;;0.40;0.40;;;;;;;;;;5083723;28;20218;-72
2022/12/13 08:56:27;;;;;;;0.30;0.30;;;;;;;;;;5083902;28;20261;-71
2022/12/13 08:58:53;;;;;;;0.40;0.40;;;;;;;;;;5083963;28;20490;-71
2022/12/13 09:01:20;;;;;;;0.30;0.30;;;;;;;;;;5083784;28;20234;-71
2022/12/13 09:03:46;;;;;;;1.50;1.50;;;;;;;;;;5083803;28;20259;-71
2022/12/13 09:06:15;;;;;;;0.20;0.20;;;;;;;;;;5083576;28;20244;-72
2022/12/13 09:08:41;;;;;;;0.20;0.20;;;;;;;;;;5083939;28;20210;-72
2022/12/13 09:11:09;;;;;;;0.20;0.20;;;;;;;;;;5083614;28;20244;-72
2022/12/13 09:13:36;;;;;;;0.20;0.20;;;;;;;;;;5083655;28;20206;-72
2022/12/13 09:16:07;;;;;;;0.20;0.20;;;;;;;;;;5083448;28;20222;-72
2022/12/13 09:18:33;;;;;;;0.20;0.20;;;;;;;;;;5083856;28;20206;-72
2022/12/13 09:20:59;;;;;;;0.20;0.20;;;;;;;;;;5083691;28;20555;-72
2022/12/13 09:23:27;;;;;;;4.77;4.47;;;;;;;;;;5083777;28;20202;-72
2022/12/13 09:25:55;;;;;;;6.03;4.70;;;;;;;;;;5083708;28;20514;-72
2022/12/13 09:28:22;;;;;;;0.83;0.83;;;;;;;;;;5083667;28;20209;-71
2022/12/13 09:30:49;;;;;;;0.20;0.20;;;;;;;;;;5083280;28;20205;-71
2022/12/13 09:33:16;;;;;;;0.40;0.40;;;;;;;;;;5083685;28;20206;-72
2022/12/13 09:35:42;;;;;;;7.50;4.53;;;;;;;;;;5083198;28;20206;-71
2022/12/13 09:38:08;;;;;;;0.20;0.20;;;;;;;;;;5083225;28;20205;-71
2022/12/13 09:40:37;;;;;;;0.20;0.20;;;;;;;;;;5083591;28;20458;-71
2022/12/13 09:43:04;;;;;;;1.23;1.23;;;;;;;;;;5083507;28;20563;-71
2022/12/13 09:45:31;;;;;;;0.20;0.20;;;;;;;;;;5083540;28;20214;-71
2022/12/13 09:48:00;;;;;;;0.20;0.20;;;;;;;;;;5083434;28;20396;-70
2022/12/13 09:50:28;;;;;;;0.87;0.87;;;;;;;;;;5083131;28;20237;-70
2022/12/13 09:52:54;;;;;;;0.30;0.30;;;;;;;;;;5083192;28;20239;-73
2022/12/13 09:55:22;;;;;;;0.30;0.30;;;;;;;;;;5083088;28;20193;-72
2022/12/13 09:57:50;;;;;;;0.20;0.20;;;;;;;;;;5082912;28;20237;-71
2022/12/13 10:00:18;;;;;;;0.40;0.40;;;;;;;;;;5083411;28;20288;-72
2022/12/13 10:02:46;;;;;;;0.20;0.20;;;;;;;;;;5083267;28;20208;-71
2022/12/13 10:05:15;;;;;;;0.40;0.40;;;;;;;;;;5083328;28;20235;-72
2022/12/13 10:07:42;;;;;;;0.40;0.40;;;;;;;;;;5082969;28;20238;-73
2022/12/13 10:10:10;;;;;;;0.30;0.30;;;;;;;;;;5083313;28;20247;-73
2022/12/13 10:12:38;;;;;;;0.93;0.83;;;;;;;;;;5082818;28;20204;-72
2022/12/13 10:15:07;;;;;;;2.00;1.90;;;;;;;;;;5085575;28;20206;-73
2022/12/13 10:17:35;;;;;;;0.77;0.77;;;;;;;;;;5086430;28;20288;-73
2022/12/13 10:20:03;;;;;;;0.20;0.20;;;;;;;;;;5086781;28;20228;-72
2022/12/13 10:22:30;;;;;;;0.20;0.20;;;;;;;;;;5086361;28;20224;-72
2022/12/13 10:24:59;;;;;;;0.20;0.20;;;;;;;;;;5086891;28;20559;-72
2022/12/13 10:27:27;;;;;;;0.23;0.23;;;;;;;;;;5086355;28;20210;-72
2022/12/13 10:30:02;;;;;;;0.30;0.30;;;;;;;;;;5086852;28;20209;-73
2022/12/13 10:32:32;;;;;;;0.20;0.20;;;;;;;;;;5086650;28;20421;-72
2022/12/13 10:34:58;;;;;;;0.30;0.30;;;;;;;;;;5086794;28;20210;-72
2022/12/13 10:37:26;;;;;;;0.20;0.20;;;;;;;;;;5086107;28;20240;-72
2022/12/13 10:39:53;;;;;;;0.40;0.40;;;;;;;;;;5086587;28;20205;-73
2022/12/13 10:42:20;;;;;;;0.83;0.83;;;;;;;;;;5086311;28;20263;-73
2022/12/13 10:44:48;;;;;;;0.20;0.20;;;;;;;;;;5086522;28;20236;-72
2022/12/13 10:47:16;;;;;;;0.30;0.30;;;;;;;;;;5086334;28;20562;-72
2022/12/13 10:49:49;;;;;;;0.50;0.50;;;;;;;;;;5086410;28;20206;-72
2022/12/13 10:52:27;;;;;;;0.20;0.20;;;;;;;;;;5085889;28;20198;-72
2022/12/13 10:54:54;;;;;;;1.17;1.07;;;;;;;;;;5085804;28;20216;-72
2022/12/13 10:57:21;;;;;;;0.20;0.20;;;;;;;;;;5085736;28;20511;-72
2022/12/13 10:59:48;;;;;;;0.80;0.80;;;;;;;;;;5086180;28;20214;-72
2022/12/13 11:02:29;;;;;;;0.20;0.20;;;;;;;;;;5086048;28;20209;-71
2022/12/13 11:04:57;;;;;;;0.77;0.77;;;;;;;;;;5086131;28;20251;-73
2022/12/13 11:07:25;;;;;;;0.47;0.47;;;;;;;;;;5085945;28;20394;-72
2022/12/13 11:09:51;;;;;;;0.30;0.30;;;;;;;;;;5086046;28;20209;-72
2022/12/13 11:12:19;;;;;;;2.00;2.00;;;;;;;;;;5085499;28;20233;-72
2022/12/13 11:14:49;;;;;;;0.40;0.40;;;;;;;;;;5086767;28;20207;-74
2022/12/13 11:17:16;;;;;;;2.20;2.00;;;;;;;;;;5085363;28;20285;-71
2022/12/13 11:19:45;;;;;;;1.27;1.27;;;;;;;;;;5085850;28;20213;-70
2022/12/13 11:22:21;;;;;;;1.33;1.27;;;;;;;;;;5085254;28;20232;-70
2022/12/13 11:24:50;;;;;;;0.30;0.30;;;;;;;;;;5085481;28;20259;-69
2022/12/13 11:27:28;;;;;;;0.30;0.30;;;;;;;;;;5085471;28;20200;-72
2022/12/13 11:30:03;;;;;;;0.20;0.20;;;;;;;;;;5085629;28;20278;-72
2022/12/13 11:32:36;;;;;;;0.20;0.20;;;;;;;;;;5085151;28;20201;-71
2022/12/13 11:35:06;;;;;;;0.20;0.20;;;;;;;;;;5085365;28;20194;-73
2022/12/13 11:37:42;;;;;;;0.20;0.20;;;;;;;;;;5085294;28;20226;-72
2022/12/13 11:40:12;;;;;;;0.30;0.30;;;;;;;;;;5085389;28;20201;-71
2022/12/13 11:42:41;;;;;;;0.30;0.30;;;;;;;;;;5085238;28;20519;-72
2022/12/13 11:45:12;;;;;;;0.20;0.20;;;;;;;;;;5084895;28;20278;-71
2022/12/13 11:47:43;;;;;;;0.30;0.30;;;;;;;;;;5085118;28;20198;-71
2022/12/13 11:50:14;;;;;;;0.20;0.20;;;;;;;;;;5084803;28;20195;-71
2022/12/13 11:52:44;;;;;;;0.20;0.20;;;;;;;;;;5084447;28;20233;-72
2022/12/13 11:55:15;;;;;;;0.33;0.33;;;;;;;;;;5085104;28;20200;-71
2022/12/13 11:57:44;;;;;;;0.20;0.20;;;;;;;;;;5084535;28;20237;-72
2022/12/13 12:00:21;;;;;;;1.03;0.77;;;;;;;;;;5084576;28;20203;-72
2022/12/13 12:02:50;;;;;;;0.20;0.20;;;;;;;;;;5084824;28;20226;-71
2022/12/13 12:05:25;;;;;;;1.07;1.07;;;;;;;;;;5084417;28;20206;-72
2022/12/13 12:07:55;;;;;;;0.40;0.40;;;;;;;;;;5084605;28;20257;-72
2022/12/13 12:10:26;;;;;;;0.20;0.20;;;;;;;;;;5084708;28;20233;-71
2022/12/13 12:12:56;;;;;;;0.53;0.53;;;;;;;;;;5084332;28;20213;-72
2022/12/13 12:15:25;;;;;;;0.40;0.40;;;;;;;;;;5084557;28;20454;-70
2022/12/13 12:17:51;;;;;;;0.20;0.20;;;;;;;;;;5084156;28;20230;-71
2022/12/13 12:20:20;;;;;;;0.20;0.20;;;;;;;;;;5084170;28;20247;-70
2022/12/13 12:22:53;;;;;;;0.20;0.20;;;;;;;;;;5084346;28;20247;-71
2022/12/13 12:25:25;;;;;;;0.20;0.20;;;;;;;;;;5084445;28;20217;-70
2022/12/13 12:27:57;;;;;;;15.03;3.13;;;;;;;;;;5084077;28;20188;-71
2022/12/13 12:30:26;;;;;;;0.27;0.27;;;;;;;;;;5084345;28;20262;-71
2022/12/13 12:32:54;;;;;;;0.27;0.27;;;;;;;;;;5084249;28;20584;-71
2022/12/13 12:35:38;;;;;;;0.80;0.80;;;;;;;;;;5084258;28;20270;-71
2022/12/13 12:38:12;;;;;;;0.20;0.20;;;;;;;;;;5083331;28;20230;-71
2022/12/13 12:40:53;;;;;;;0.20;0.20;;;;;;;;;;5083975;28;20194;-72
2022/12/13 12:43:24;;;;;;;0.20;0.20;;;;;;;;;;5081510;28;20212;-71
2022/12/13 12:45:55;;;;;;;0.87;0.87;;;;;;;;;;5083854;28;20194;-71
2022/12/13 12:48:27;;;;;;;0.20;0.20;;;;;;;;;;5083877;28;20205;-71
2022/12/13 12:50:56;;;;;;;0.20;0.20;;;;;;;;;;5084085;28;20223;-70
2022/12/13 12:53:30;;;;;;;0.20;0.20;;;;;;;;;;5083831;28;20224;-70
2022/12/13 12:56:01;;;;;;;0.20;0.20;;;;;;;;;;5083988;28;20203;-71
2022/12/13 12:58:34;;;;;;;0.50;0.50;;;;;;;;;;5083996;28;20275;-71
2022/12/13 13:01:08;;;;;;;0.60;0.60;;;;;;;;;;5083935;28;20256;-70
2022/12/13 13:03:35;;;;;;;0.20;0.20;;;;;;;;;;5084052;28;20281;-70
2022/12/13 13:06:04;;;;;;;0.20;0.20;;;;;;;;;;5083604;28;20234;-70
2022/12/13 13:08:33;;;;;;;0.20;0.20;;;;;;;;;;5083911;28;20525;-70
2022/12/13 13:11:01;;;;;;;0.20;0.20;;;;;;;;;;5083548;28;20213;-70
2022/12/13 13:13:44;;;;;;;0.20;0.20;;;;;;;;;;5083649;28;20213;-70
2022/12/13 13:16:26;;;;;;;0.20;0.20;;;;;;;;;;5083862;28;20417;-70
2022/12/13 13:18:53;;;;;;;0.20;0.20;;;;;;;;;;5083542;28;20253;-70
2022/12/13 13:21:26;;;;;;;3.70;3.50;;;;;;;;;;5083760;28;20229;-70
2022/12/13 13:24:05;;;;;;;0.40;0.40;;;;;;;;;;5083867;28;20237;-70
2022/12/13 13:26:32;;;;;;;1.17;1.17;;;;;;;;;;5083734;28;20216;-71
2022/12/13 13:29:13;;;;;;;0.20;0.20;;;;;;;;;;5083720;28;20239;-70
2022/12/13 13:31:55;;;;;;;0.20;0.20;;;;;;;;;;5083165;28;20273;-71
2022/12/13 13:34:24;;;;;;;0.23;0.23;;;;;;;;;;5083810;28;20209;-70
2022/12/13 13:36:51;;;;;;;0.33;0.33;;;;;;;;;;5083559;28;20502;-70
2022/12/13 13:39:18;;;;;;;0.20;0.20;;;;;;;;;;5083649;28;20237;-69
2022/12/13 13:41:55;;;;;;;0.20;0.20;;;;;;;;;;5083224;28;20206;-70
2022/12/13 13:44:54;;;;;;;0.20;0.20;;;;;;;;;;5083652;28;20206;-70
2022/12/13 13:47:38;;;;;;;0.20;0.20;;;;;;;;;;5083560;28;20492;-71
2022/12/13 13:50:19;;;;;;;0.30;0.30;;;;;;;;;;5087418;28;20206;-71
2022/12/13 13:52:50;;;;;;;0.20;0.20;;;;;;;;;;5086907;28;20193;-71
2022/12/13 13:55:24;;;;;;;0.20;0.20;;;;;;;;;;5087103;28;20404;-72
2022/12/13 13:58:14;;;;;;;0.20;0.20;;;;;;;;;;5087163;28;20224;-72
2022/12/13 14:00:54;;;;;;;0.20;0.20;;;;;;;;;;5087243;28;20198;-71
2022/12/13 14:03:40;;;;;;;0.20;0.20;;;;;;;;;;5087258;28;20203;-70
2022/12/13 14:06:27;;;;;;;0.30;0.30;;;;;;;;;;5086759;28;20214;-70
2022/12/13 14:09:14;;;;;;;0.30;0.30;;;;;;;;;;5081988;28;20202;-70
2022/12/13 14:11:55;;;;;;;0.57;0.57;;;;;;;;;;5086651;28;20195;-70
2022/12/13 14:14:40;;;;;;;0.63;0.63;;;;;;;;;;5086582;28;20203;-70
2022/12/13 14:17:18;;;;;;;0.20;0.20;;;;;;;;;;5086550;28;20231;-70
2022/12/13 14:20:02;;;;;;;0.30;0.30;;;;;;;;;;5087086;28;20211;-70
2022/12/13 14:22:32;;;;;;;0.30;0.30;;;;;;;;;;5055950;28;20251;-69
2022/12/13 14:28:08;;;;;;;0.30;0.30;;;;;;;;;;5086527;28;20268;-68
2022/12/13 14:33:16;;;;;;;0.30;0.30;;;;;;;;;;5406722;22;20579;-80
2022/12/13 14:35:49;;;;;;;0.30;0.30;;;;;;;;;;5066693;28;20243;-81
2022/12/13 14:38:21;;;;;;;0.30;0.30;;;;;;;;;;5066552;28;20239;-80
2022/12/13 14:40:48;;;;;;;0.40;0.40;;;;;;;;;;5067075;28;20510;-76
2022/12/13 14:43:22;;;;;;;0.30;0.30;;;;;;;;;;5066427;28;20204;-76
2022/12/13 14:45:53;;;;;;;0.30;0.30;;;;;;;;;;5066521;28;20541;-75
2022/12/13 14:53:36;;;;;;;0.30;0.30;;;;;;;;;;5841640;22;20307;-67
2022/12/13 14:56:04;;;;;;;0.30;0.30;;;;;;;;;;5066300;28;20192;-69
2022/12/13 14:58:32;;;;;;;0.30;0.30;;;;;;;;;;5065939;28;20260;-70
2022/12/13 15:00:58;;;;;;;0.30;0.30;;;;;;;;;;5065516;28;20207;-69
2022/12/13 15:03:26;;;;;;;0.30;0.30;;;;;;;;;;5065884;28;20510;-69
2022/12/13 15:05:54;;;;;;;0.40;0.40;;;;;;;;;;5065835;28;20204;-69
2022/12/13 15:08:21;;;;;;;0.30;0.30;;;;;;;;;;5066092;28;20207;-69
2022/12/13 15:10:49;;;;;;;0.37;0.37;;;;;;;;;;5065980;28;20204;-69
2022/12/13 15:13:24;;;;;;;0.30;0.30;;;;;;;;;;5065892;28;20241;-71